createdAt,value
2022-08-17T00:00:43.800Z,99.90
2022-08-17T00:03:22.287Z,99.90
2022-08-17T00:06:31.536Z,99.90
2022-08-17T00:09:02.824Z,99.90
2022-08-17T00:11:39.611Z,99.90
2022-08-17T00:14:24.875Z,99.90
2022-08-17T00:16:57.142Z,99.90
2022-08-17T00:19:24.663Z,99.90
2022-08-17T00:22:28.615Z,99.90
2022-08-17T00:25:07.662Z,99.90
2022-08-17T00:27:34.292Z,99.90
2022-08-17T00:30:01.285Z,99.90
2022-08-17T00:33:10.908Z,99.90
2022-08-17T00:35:50.083Z,99.90
2022-08-17T00:38:16.382Z,99.90
2022-08-17T00:40:45.675Z,99.90
2022-08-17T00:43:33.448Z,99.90
2022-08-17T00:46:01.720Z,99.90
2022-08-17T00:48:30.786Z,99.90
2022-08-17T00:51:26.044Z,99.90
2022-08-17T00:54:41.896Z,99.90
2022-08-17T00:57:30.090Z,99.90
2022-08-17T01:00:04.073Z,99.90
2022-08-17T01:02:41.772Z,99.90
2022-08-17T01:05:23.512Z,99.90
2022-08-17T01:07:51.624Z,99.90
2022-08-17T01:10:58.730Z,99.90
2022-08-17T01:13:42.638Z,99.90
2022-08-17T01:16:26.416Z,99.90
2022-08-17T01:18:55.283Z,99.90
2022-08-17T01:21:53.161Z,99.90
2022-08-17T01:24:19.443Z,99.90
2022-08-17T01:26:45.698Z,99.90
2022-08-17T01:29:12.056Z,99.90
2022-08-17T01:31:44.944Z,99.90
2022-08-17T01:34:12.294Z,99.90
2022-08-17T01:36:40.565Z,99.90
2022-08-17T01:39:09.428Z,99.90
2022-08-17T01:41:36.267Z,99.90
2022-08-17T01:44:04.141Z,99.90
2022-08-17T01:46:34.549Z,99.90
2022-08-17T01:49:01.434Z,99.90
2022-08-17T01:51:31.877Z,99.90
2022-08-17T01:54:02.392Z,99.90
2022-08-17T01:56:29.169Z,99.90
2022-08-17T01:58:55.927Z,99.90
2022-08-17T02:01:24.101Z,99.90
2022-08-17T02:03:53.225Z,99.90
2022-08-17T02:06:52.734Z,99.90
2022-08-17T02:09:25.965Z,99.90
2022-08-17T02:11:57.641Z,99.90
2022-08-17T02:14:24.065Z,99.90
2022-08-17T02:16:51.091Z,99.90
2022-08-17T02:19:17.353Z,99.90
2022-08-17T02:21:45.967Z,99.90
2022-08-17T02:25:01.150Z,99.90
2022-08-17T02:27:28.553Z,99.90
2022-08-17T02:29:54.805Z,99.90
2022-08-17T02:32:28.243Z,99.90
2022-08-17T02:34:57.777Z,99.90
2022-08-17T02:37:25.747Z,99.90
2022-08-17T02:39:58.542Z,99.90
2022-08-17T02:42:37.558Z,99.90
2022-08-17T02:45:10.484Z,99.90
2022-08-17T02:47:37.369Z,99.90
2022-08-17T02:50:05.745Z,99.90
2022-08-17T02:52:43.303Z,99.90
2022-08-17T02:55:32.134Z,99.90
2022-08-17T02:57:58.380Z,99.90
2022-08-17T03:00:28.440Z,99.90
2022-08-17T03:02:55.905Z,99.90
2022-08-17T03:05:24.429Z,99.90
2022-08-17T03:07:51.155Z,99.90
2022-08-17T03:10:17.830Z,99.90
2022-08-17T03:12:44.604Z,99.90
2022-08-17T03:15:22.806Z,99.90
2022-08-17T03:17:49.021Z,99.90
2022-08-17T03:20:18.491Z,99.90
2022-08-17T03:22:53.414Z,99.90
2022-08-17T03:25:44.024Z,99.90
2022-08-17T03:28:11.509Z,99.90
2022-08-17T03:30:40.116Z,99.90
2022-08-17T03:33:09.824Z,99.90
2022-08-17T03:35:37.393Z,99.90
2022-08-17T03:38:04.561Z,99.90
2022-08-17T03:40:55.875Z,99.90
2022-08-17T03:43:24.962Z,99.90
2022-08-17T03:46:26.843Z,99.90
2022-08-17T03:49:17.665Z,99.90
2022-08-17T03:52:02.494Z,99.90
2022-08-17T03:54:47.675Z,99.90
2022-08-17T03:57:14.575Z,99.90
2022-08-17T03:59:41.036Z,99.90
2022-08-17T04:02:15.779Z,99.90
2022-08-17T04:04:42.433Z,99.90
2022-08-17T04:07:09.210Z,99.90
2022-08-17T04:09:36.361Z,99.90
2022-08-17T04:12:05.272Z,99.90
2022-08-17T04:14:53.503Z,99.90
2022-08-17T04:17:26.895Z,99.90
2022-08-17T04:19:54.642Z,99.90
2022-08-17T04:22:31.318Z,99.90
2022-08-17T04:25:16.181Z,99.90
2022-08-17T04:27:42.478Z,99.90
2022-08-17T04:30:10.760Z,99.90
2022-08-17T04:33:14.890Z,99.90
2022-08-17T04:35:45.077Z,99.90
2022-08-17T04:38:13.246Z,99.90
2022-08-17T04:40:57.854Z,99.90
2022-08-17T04:43:25.624Z,99.90
2022-08-17T04:45:57.633Z,99.90
2022-08-17T04:48:35.221Z,99.90
2022-08-17T04:51:02.163Z,99.90
2022-08-17T04:53:28.543Z,99.90
2022-08-17T04:55:54.782Z,99.90
2022-08-17T04:58:21.027Z,99.90
2022-08-17T05:00:47.406Z,99.90
2022-08-17T05:03:16.791Z,99.90
2022-08-17T05:05:49.022Z,99.90
2022-08-17T05:08:21.246Z,99.90
2022-08-17T05:10:48.182Z,99.90
2022-08-17T05:13:16.332Z,99.90
2022-08-17T05:15:45.118Z,99.90
2022-08-17T05:18:14.268Z,99.90
2022-08-17T05:20:41.026Z,99.90
2022-08-17T05:23:09.765Z,99.90
2022-08-17T05:25:49.741Z,99.90
2022-08-17T05:28:18.047Z,99.90
2022-08-17T05:30:45.213Z,99.90
2022-08-17T05:33:18.698Z,99.90
2022-08-17T05:35:46.798Z,99.90
2022-08-17T05:38:14.562Z,99.90
2022-08-17T05:40:41.646Z,99.90
2022-08-17T05:43:25.757Z,99.90
2022-08-17T05:46:23.329Z,99.90
2022-08-17T05:48:57.362Z,99.90
2022-08-17T05:53:06.191Z,99.90
2022-08-17T05:55:46.410Z,99.90
2022-08-17T06:00:20.410Z,99.90
2022-08-17T06:06:06.143Z,99.90
2022-08-17T06:09:26.624Z,99.90
2022-08-17T06:15:32.216Z,99.90
2022-08-17T06:18:01.798Z,99.90
2022-08-17T06:20:50.213Z,99.90
2022-08-17T06:23:38.033Z,99.90
2022-08-17T06:26:42.945Z,99.90
2022-08-17T06:30:04.736Z,99.90
2022-08-17T06:32:32.332Z,99.90
2022-08-17T06:34:59.061Z,99.90
2022-08-17T06:41:18.565Z,99.90
2022-08-17T06:44:13.037Z,99.90
2022-08-17T06:47:35.419Z,99.90
2022-08-17T06:50:21.509Z,99.90
2022-08-17T06:52:57.139Z,99.90
2022-08-17T07:02:19.948Z,99.90
2022-08-17T07:04:59.813Z,99.90
2022-08-17T07:07:44.588Z,99.90
2022-08-17T07:10:11.406Z,99.90
2022-08-17T07:12:40.788Z,99.90
2022-08-17T07:15:19.524Z,99.90
2022-08-17T07:17:48.395Z,99.90
2022-08-17T07:20:21.952Z,99.90
2022-08-17T07:23:06.583Z,99.90
2022-08-17T07:25:32.858Z,99.90
2022-08-17T07:28:01.932Z,99.90
2022-08-17T07:30:37.214Z,99.90
2022-08-17T07:33:26.339Z,94.70
2022-08-17T07:35:52.981Z,97.40
2022-08-17T07:38:27.709Z,98.20
2022-08-17T07:41:15.934Z,98.10
2022-08-17T07:43:47.482Z,99.90
2022-08-17T07:51:27.169Z,95.70
2022-08-17T07:54:12.907Z,96.20
2022-08-17T07:56:46.679Z,88.50
2022-08-17T07:59:23.386Z,94.30
2022-08-17T08:03:15.917Z,90.10
2022-08-17T08:05:57.414Z,85.90
2022-08-17T08:08:37.975Z,79.70
2022-08-17T08:11:10.962Z,82.10
2022-08-17T08:13:43.388Z,81.60
2022-08-17T08:16:25.101Z,80.60
2022-08-17T08:18:56.938Z,76.00
2022-08-17T08:21:41.517Z,79.60
2022-08-17T08:25:59.253Z,79.70
2022-08-17T08:30:21.045Z,82.20
2022-08-17T08:39:41.702Z,78.70
2022-08-17T08:45:04.196Z,79.00
2022-08-17T08:50:37.049Z,90.40
2022-08-17T08:53:42.259Z,73.80
2022-08-17T08:57:11.585Z,74.60
2022-08-17T09:05:16.281Z,71.00
2022-08-17T09:08:16.209Z,77.10
2022-08-17T09:11:05.457Z,81.30
2022-08-17T09:17:14.214Z,73.90
2022-08-17T09:20:01.051Z,74.80
2022-08-17T09:22:37.666Z,79.70
2022-08-17T09:25:29.042Z,74.00
2022-08-17T09:28:06.355Z,79.70
2022-08-17T09:30:44.811Z,78.80
2022-08-17T09:33:12.753Z,80.90
2022-08-17T09:36:03.705Z,74.90
2022-08-17T09:38:57.699Z,69.60
2022-08-17T09:41:37.983Z,58.60
2022-08-17T09:45:44.825Z,68.20
2022-08-17T09:48:20.616Z,61.80
2022-08-17T09:51:09.156Z,70.80
2022-08-17T09:53:36.881Z,56.60
2022-08-17T09:58:13.556Z,72.70
2022-08-17T10:00:43.888Z,60.70
2022-08-17T10:05:11.593Z,69.10
2022-08-17T10:08:08.089Z,61.10
2022-08-17T10:10:56.348Z,62.40
2022-08-17T10:13:59.518Z,60.80
2022-08-17T10:16:47.708Z,64.30
2022-08-17T10:19:35.463Z,75.70
2022-08-17T10:22:34.788Z,70.50
2022-08-17T10:25:22.303Z,58.80
2022-08-17T10:27:55.332Z,63.00
2022-08-17T10:30:23.986Z,52.10
2022-08-17T10:32:58.638Z,59.70
2022-08-17T10:38:37.982Z,56.30
2022-08-17T10:44:50.205Z,58.60
2022-08-17T10:47:18.728Z,58.70
2022-08-17T10:49:50.202Z,59.20
2022-08-17T10:53:01.778Z,60.80
2022-08-17T10:55:29.072Z,58.50
2022-08-17T10:58:20.893Z,64.00
2022-08-17T11:00:56.972Z,66.50
2022-08-17T11:03:24.669Z,60.70
2022-08-17T11:06:08.867Z,56.70
2022-08-17T11:11:45.097Z,53.40
2022-08-17T11:14:32.388Z,51.90
2022-08-17T11:17:36.758Z,57.70
2022-08-17T11:28:34.740Z,63.10
2022-08-17T11:31:46.352Z,74.00
2022-08-17T11:34:20.954Z,92.00
2022-08-17T11:43:56.170Z,94.70
2022-08-17T11:46:51.831Z,97.10
2022-08-17T11:51:18.029Z,99.40
2022-08-17T11:56:18.783Z,93.30
2022-08-17T11:58:46.058Z,72.40
2022-08-17T12:01:58.454Z,69.50
2022-08-17T12:04:29.846Z,69.40
2022-08-17T12:07:43.086Z,64.30
2022-08-17T12:10:12.812Z,64.60
2022-08-17T12:12:45.089Z,60.40
2022-08-17T12:15:19.329Z,65.00
2022-08-17T12:17:54.458Z,63.00
2022-08-17T12:20:32.842Z,63.60
2022-08-17T12:26:00.838Z,62.70
2022-08-17T12:28:30.260Z,67.30
2022-08-17T12:31:26.015Z,64.60
2022-08-17T12:33:52.514Z,67.60
2022-08-17T12:36:24.498Z,63.80
2022-08-17T12:38:59.473Z,66.40
2022-08-17T12:41:44.257Z,68.70
2022-08-17T12:45:24.320Z,72.00
2022-08-17T12:48:06.956Z,63.60
2022-08-17T12:50:38.850Z,65.60
2022-08-17T12:53:27.142Z,68.90
2022-08-17T12:56:06.845Z,59.20
2022-08-17T12:58:36.309Z,58.30
2022-08-17T13:01:05.478Z,58.50
2022-08-17T13:03:37.700Z,59.90
2022-08-17T13:06:06.149Z,55.60
2022-08-17T13:08:51.558Z,58.40
2022-08-17T13:11:23.953Z,63.10
2022-08-17T13:13:53.240Z,56.00
2022-08-17T13:16:26.112Z,52.10
2022-08-17T13:19:18.175Z,63.80
2022-08-17T13:22:01.696Z,56.90
2022-08-17T13:24:37.768Z,61.40
2022-08-17T13:27:08.809Z,55.90
2022-08-17T13:29:57.737Z,57.90
2022-08-17T13:32:47.070Z,52.20
2022-08-17T13:35:39.547Z,53.50
2022-08-17T13:38:12.820Z,64.40
2022-08-17T13:40:52.185Z,57.50
2022-08-17T13:50:18.612Z,55.40
2022-08-17T13:52:48.869Z,55.40
2022-08-17T13:55:20.925Z,57.00
2022-08-17T13:57:49.895Z,53.80
2022-08-17T14:00:32.486Z,54.00
2022-08-17T14:03:01.822Z,51.30
2022-08-17T14:05:29.647Z,51.90
2022-08-17T14:07:57.844Z,51.60
2022-08-17T14:10:25.692Z,51.20
2022-08-17T14:12:52.210Z,51.20
2022-08-17T14:15:24.303Z,51.50
2022-08-17T14:18:55.704Z,52.00
2022-08-17T14:21:24.306Z,53.80
2022-08-17T14:23:54.888Z,55.10
2022-08-17T14:26:21.897Z,55.00
2022-08-17T14:28:54.583Z,59.60
2022-08-17T14:31:24.322Z,60.00
2022-08-17T14:33:51.395Z,56.40
2022-08-17T14:36:17.755Z,55.80
2022-08-17T14:38:45.308Z,57.90
2022-08-17T14:41:12.143Z,55.60
2022-08-17T14:43:40.117Z,54.50
2022-08-17T14:46:06.786Z,53.60
2022-08-17T14:48:35.156Z,52.90
2022-08-17T14:51:01.795Z,49.30
2022-08-17T14:53:28.771Z,55.70
2022-08-17T14:55:55.055Z,60.10
2022-08-17T14:58:21.905Z,59.20
2022-08-17T15:00:51.081Z,59.50
2022-08-17T15:03:18.375Z,60.70
2022-08-17T15:05:47.116Z,59.60
2022-08-17T15:08:14.619Z,60.50
2022-08-17T15:10:41.467Z,57.90
2022-08-17T15:13:17.951Z,59.40
2022-08-17T15:15:44.342Z,61.40
2022-08-17T15:18:11.468Z,61.30
2022-08-17T15:20:37.761Z,57.60
2022-08-17T15:23:06.607Z,55.80
2022-08-17T15:25:32.914Z,57.00
2022-08-17T15:27:59.826Z,56.10
2022-08-17T15:30:26.360Z,54.90
2022-08-17T15:32:54.962Z,61.30
2022-08-17T15:35:29.246Z,67.90
2022-08-17T15:38:11.198Z,57.40
2022-08-17T15:40:44.017Z,56.40
2022-08-17T15:43:13.375Z,52.40
2022-08-17T15:45:39.720Z,52.90
2022-08-17T15:48:06.378Z,62.70
2022-08-17T15:50:32.661Z,60.50
2022-08-17T15:53:00.733Z,55.10
2022-08-17T15:55:29.157Z,57.60
2022-08-17T15:57:55.548Z,58.80
2022-08-17T16:00:27.596Z,56.00
2022-08-17T16:03:14.561Z,57.60
2022-08-17T16:06:13.684Z,58.60
2022-08-17T16:08:45.897Z,69.90
2022-08-17T16:11:14.407Z,63.10
2022-08-17T16:13:41.754Z,73.50
2022-08-17T16:16:14.568Z,69.00
2022-08-17T16:18:41.533Z,64.00
2022-08-17T16:21:26.498Z,62.20
2022-08-17T16:24:02.261Z,72.80
2022-08-17T16:26:29.379Z,70.80
2022-08-17T16:28:56.742Z,66.60
2022-08-17T16:31:23.076Z,78.30
2022-08-17T16:34:15.752Z,90.20
2022-08-17T16:36:51.659Z,95.20
2022-08-17T16:39:28.301Z,99.90
2022-08-17T16:42:00.229Z,99.90
2022-08-17T16:44:30.706Z,99.90
2022-08-17T16:46:58.230Z,99.90
2022-08-17T16:49:37.032Z,99.90
2022-08-17T16:52:09.510Z,99.90
2022-08-17T16:54:42.874Z,99.90
2022-08-17T16:57:11.268Z,99.90
2022-08-17T16:59:41.868Z,99.90
2022-08-17T17:02:12.295Z,99.90
2022-08-17T17:05:11.541Z,99.90
2022-08-17T17:09:13.689Z,99.90
2022-08-17T17:11:45.138Z,99.90
2022-08-17T17:14:15.572Z,99.90
2022-08-17T17:16:48.557Z,99.90
2022-08-17T17:19:34.524Z,99.90
2022-08-17T17:22:16.018Z,99.90
2022-08-17T17:24:57.563Z,99.90
2022-08-17T17:27:46.600Z,99.90
2022-08-17T17:30:20.718Z,99.90
2022-08-17T17:33:14.077Z,99.90
2022-08-17T17:35:50.598Z,99.90
2022-08-17T17:38:29.184Z,99.90
2022-08-17T17:41:02.973Z,99.90
2022-08-17T17:43:39.744Z,99.90
2022-08-17T17:46:29.283Z,99.90
2022-08-17T17:48:58.831Z,99.90
2022-08-17T17:52:53.837Z,99.90
2022-08-17T17:55:42.321Z,99.90
2022-08-17T17:58:43.532Z,99.90
2022-08-17T18:05:21.254Z,99.90
2022-08-17T18:07:55.488Z,99.90
2022-08-17T18:10:31.677Z,99.90
2022-08-17T18:13:22.908Z,99.90
2022-08-17T18:15:54.496Z,99.90
2022-08-17T18:18:38.627Z,99.90
2022-08-17T18:21:16.038Z,99.90
2022-08-17T18:23:47.478Z,99.90
2022-08-17T18:26:38.286Z,99.90
2022-08-17T18:29:35.469Z,99.90
2022-08-17T18:32:38.441Z,99.90
2022-08-17T18:35:28.209Z,99.90
2022-08-17T18:38:20.384Z,99.90
2022-08-17T18:41:42.946Z,99.90
2022-08-17T18:46:29.291Z,99.90
2022-08-17T18:49:06.761Z,99.90
2022-08-17T18:51:41.110Z,99.90
2022-08-17T18:54:23.651Z,99.90
2022-08-17T18:56:58.618Z,99.90
2022-08-17T18:59:45.662Z,99.90
2022-08-17T19:02:36.048Z,99.90
2022-08-17T19:05:28.322Z,99.90
2022-08-17T19:07:55.382Z,99.90
2022-08-17T19:10:47.015Z,99.90
2022-08-17T19:13:35.393Z,99.90
2022-08-17T19:18:53.380Z,99.90
2022-08-17T19:25:02.739Z,99.90
2022-08-17T19:27:43.705Z,99.90
2022-08-17T19:30:14.938Z,99.90
2022-08-17T19:32:42.736Z,99.90
2022-08-17T19:35:17.143Z,99.90
2022-08-17T19:40:59.123Z,99.90
2022-08-17T19:43:59.991Z,99.90
2022-08-17T19:49:46.501Z,99.90
2022-08-17T19:54:14.728Z,99.90
2022-08-17T19:56:55.901Z,99.90
2022-08-17T20:00:54.104Z,99.90
2022-08-17T20:03:38.406Z,99.90
2022-08-17T20:06:13.019Z,99.90
2022-08-17T20:08:49.674Z,99.90
2022-08-17T20:11:22.680Z,99.90
2022-08-17T20:14:01.010Z,99.90
2022-08-17T20:16:28.808Z,99.90
2022-08-17T20:18:59.244Z,99.90
2022-08-17T20:22:10.153Z,99.90
2022-08-17T20:25:40.328Z,99.90
2022-08-17T20:28:35.087Z,99.90
2022-08-17T20:31:03.220Z,99.90
2022-08-17T20:33:35.117Z,99.90
2022-08-17T20:36:23.630Z,99.90
2022-08-17T20:38:57.916Z,99.90
2022-08-17T20:41:26.510Z,99.90
2022-08-17T20:44:04.451Z,99.90
2022-08-17T20:46:48.858Z,99.90
2022-08-17T20:50:06.909Z,99.90
2022-08-17T20:52:59.299Z,99.90
2022-08-17T20:56:49.741Z,99.90
2022-08-17T21:01:34.462Z,99.90
2022-08-17T21:04:02.437Z,99.90
2022-08-17T21:06:29.785Z,99.90
2022-08-17T21:09:39.169Z,99.90
2022-08-17T21:12:06.091Z,99.90
2022-08-17T21:15:43.698Z,99.90
2022-08-17T21:18:38.673Z,99.90
2022-08-17T21:23:16.779Z,99.90
2022-08-17T21:26:30.412Z,99.90
2022-08-17T21:29:17.164Z,99.90
2022-08-17T21:32:31.910Z,99.90
2022-08-17T21:36:51.505Z,99.90
2022-08-17T21:39:21.483Z,99.90
2022-08-17T21:41:55.110Z,99.90
2022-08-17T21:44:31.784Z,99.90
2022-08-17T21:47:13.572Z,99.90
2022-08-17T21:49:39.806Z,99.90
2022-08-17T21:52:06.466Z,99.90
2022-08-17T21:54:35.167Z,99.90
2022-08-17T21:57:03.707Z,99.90
2022-08-17T21:59:38.035Z,99.90
2022-08-17T22:02:08.840Z,99.90
2022-08-17T22:04:39.795Z,99.90
2022-08-17T22:07:11.148Z,99.90
2022-08-17T22:09:45.795Z,99.90
2022-08-17T22:12:18.763Z,99.90
2022-08-17T22:14:56.005Z,99.90
2022-08-17T22:17:24.643Z,99.90
2022-08-17T22:20:13.893Z,99.90
2022-08-17T22:23:31.944Z,99.90
2022-08-17T22:26:03.809Z,99.90
2022-08-17T22:28:52.087Z,99.90
2022-08-17T22:31:23.609Z,99.90
2022-08-17T22:34:13.791Z,99.90
2022-08-17T22:36:41.303Z,99.90
2022-08-17T22:39:56.373Z,99.90
2022-08-17T22:42:22.876Z,99.90
2022-08-17T22:44:49.913Z,99.90
2022-08-17T22:47:30.724Z,99.90
2022-08-17T22:50:00.290Z,99.90
2022-08-17T22:54:29.651Z,99.90
2022-08-17T22:57:22.142Z,99.90
2022-08-17T22:59:51.124Z,99.90
2022-08-17T23:02:25.363Z,99.90
2022-08-17T23:08:28.122Z,99.90
2022-08-17T23:10:54.370Z,99.90
2022-08-17T23:13:21.110Z,99.90
2022-08-17T23:15:49.494Z,99.90
2022-08-17T23:18:17.167Z,99.90
2022-08-17T23:20:43.432Z,99.90
2022-08-17T23:23:10.729Z,99.90
2022-08-17T23:25:37.262Z,99.90
2022-08-17T23:28:04.895Z,99.90
2022-08-17T23:30:35.539Z,99.90
2022-08-17T23:33:04.555Z,99.90
2022-08-17T23:35:38.920Z,99.90
2022-08-17T23:38:06.951Z,99.90
2022-08-17T23:40:33.367Z,99.90
2022-08-17T23:42:59.631Z,99.90
2022-08-17T23:45:25.904Z,99.90
2022-08-17T23:47:52.284Z,99.90
2022-08-17T23:50:18.833Z,99.90
2022-08-17T23:52:46.160Z,99.90
2022-08-17T23:55:13.941Z,99.90
2022-08-17T23:57:40.972Z,99.90
